Time;durP1;ratioP1;P1;durP2;ratioP2;P2;SDS_P1;SDS_P2;PMS_P1;PMS_P2;Temp;Humidity;BMP_temperature;BMP_pressure;BME280_temperature;BME280_humidity;BME280_pressure;Samples;Min_cycle;Max_cycle;Signal;HPM_P1;HPM_P2
2022/05/02 00:01:35;;;;;;;7.65;5.55;;;13.20;99.90;;;;;;7389377;19;20665;-75
2022/05/02 00:04:00;;;;;;;6.07;5.10;;;13.20;99.90;;;;;;7389881;19;20154;-78
2022/05/02 00:06:26;;;;;;;5.47;4.72;;;13.20;99.90;;;;;;7391011;19;20163;-77
2022/05/02 00:08:52;;;;;;;5.57;4.90;;;13.10;99.90;;;;;;7393315;19;20135;-75
2022/05/02 00:11:18;;;;;;;8.32;5.07;;;13.00;99.90;;;;;;7390915;19;20522;-76
2022/05/02 00:13:43;;;;;;;7.28;5.90;;;13.20;99.90;;;;;;7392379;19;20147;-78
2022/05/02 00:16:09;;;;;;;6.03;5.30;;;13.40;99.90;;;;;;7393100;19;20139;-76
2022/05/02 00:18:35;;;;;;;6.55;5.47;;;13.30;99.90;;;;;;7388385;19;20130;-77
2022/05/02 00:21:01;;;;;;;6.30;5.30;;;13.40;99.90;;;;;;7392828;19;20222;-78
2022/05/02 00:23:28;;;;;;;6.30;5.47;;;13.30;99.90;;;;;;7391938;19;20130;-77
2022/05/02 00:25:54;;;;;;;6.70;5.73;;;13.30;99.90;;;;;;7388708;19;20199;-77
2022/05/02 00:28:20;;;;;;;7.23;6.13;;;13.50;99.90;;;;;;7391820;19;20132;-79
2022/05/02 00:30:45;;;;;;;6.30;5.37;;;13.40;99.90;;;;;;7387195;19;20597;-78
2022/05/02 00:33:11;;;;;;;5.73;5.13;;;13.40;99.90;;;;;;7389167;19;20130;-77
2022/05/02 00:35:37;;;;;;;7.10;5.80;;;13.30;99.90;;;;;;7389398;19;20134;-77
2022/05/02 00:38:04;;;;;;;7.17;5.53;;;13.30;99.90;;;;;;7386242;19;20614;-77
2022/05/02 00:40:29;;;;;;;6.17;5.43;;;13.20;99.90;;;;;;7386875;19;20145;-76
2022/05/02 00:42:55;;;;;;;7.30;5.27;;;13.30;99.90;;;;;;7388497;19;20186;-76
2022/05/02 00:45:21;;;;;;;6.00;4.77;;;13.30;99.90;;;;;;7395048;19;20138;-76
2022/05/02 00:47:55;;;;;;;7.75;5.80;;;12.90;99.90;;;;;;7388481;19;20238;-76
2022/05/02 00:50:42;;;;;;;7.43;5.55;;;12.60;99.90;;;;;;7391881;19;20134;-76
2022/05/02 00:53:19;;;;;;;8.10;5.95;;;12.10;99.90;;;;;;7388411;19;20135;-76
2022/05/02 00:55:45;;;;;;;8.02;5.72;;;11.70;99.90;;;;;;7390465;19;20141;-77
2022/05/02 00:58:14;;;;;;;9.70;6.20;;;11.80;99.90;;;;;;7387801;19;20131;-75
2022/05/02 01:00:40;;;;;;;6.77;5.03;;;12.00;99.90;;;;;;7387441;19;20163;-77
2022/05/02 01:03:08;;;;;;;6.53;5.27;;;12.10;99.90;;;;;;7386227;19;20151;-75
2022/05/02 01:08:29;;;;;;;8.13;6.17;;;12.50;99.90;;;;;;7390284;19;20125;-76
2022/05/02 01:10:56;;;;;;;7.47;6.03;;;12.70;99.90;;;;;;7388034;19;20138;-76
2022/05/02 01:13:39;;;;;;;6.60;5.27;;;12.70;99.90;;;;;;7385236;19;20135;-76
2022/05/02 01:16:15;;;;;;;7.53;5.47;;;12.90;99.90;;;;;;7386451;19;20899;-78
2022/05/02 01:18:43;;;;;;;7.87;5.30;;;13.00;99.90;;;;;;7385916;19;20138;-76
2022/05/02 01:21:14;;;;;;;7.73;6.27;;;12.90;99.90;;;;;;7386332;19;20151;-76
2022/05/02 01:23:44;;;;;;;8.80;5.70;;;12.90;99.90;;;;;;7386669;19;20134;-77
2022/05/02 01:26:11;;;;;;;7.82;5.32;;;12.90;99.90;;;;;;7393585;19;20134;-76
2022/05/02 01:29:01;;;;;;;8.33;5.50;;;12.90;99.90;;;;;;7397197;19;20170;-77
2022/05/02 01:31:28;;;;;;;8.27;5.63;;;13.00;99.90;;;;;;7385793;19;20129;-77
2022/05/02 01:33:54;;;;;;;7.67;5.40;;;13.10;99.90;;;;;;7385046;19;20135;-76
2022/05/02 01:36:21;;;;;;;6.80;5.43;;;13.10;99.90;;;;;;7387604;19;20493;-76
2022/05/02 01:38:48;;;;;;;5.57;4.90;;;13.10;99.90;;;;;;7387140;19;20586;-75
2022/05/02 01:41:13;;;;;;;7.20;5.27;;;13.10;99.90;;;;;;7385829;19;20445;-79
2022/05/02 01:43:40;;;;;;;6.17;5.30;;;13.10;99.90;;;;;;7383898;19;20252;-76
2022/05/02 01:46:07;;;;;;;6.97;5.20;;;13.10;99.90;;;;;;7383247;19;20151;-77
2022/05/02 01:48:33;;;;;;;7.43;5.40;;;13.10;99.90;;;;;;7388224;19;20135;-76
2022/05/02 01:50:59;;;;;;;6.00;5.00;;;13.10;99.90;;;;;;7384051;19;20127;-78
2022/05/02 01:53:26;;;;;;;6.73;5.27;;;13.00;99.90;;;;;;7383195;19;20134;-77
2022/05/02 01:55:52;;;;;;;7.60;5.70;;;13.10;99.90;;;;;;7388247;19;20598;-78
2022/05/02 01:58:18;;;;;;;5.97;4.75;;;13.10;99.90;;;;;;7386402;19;20139;-78
2022/05/02 02:00:45;;;;;;;7.77;5.80;;;13.00;99.90;;;;;;7385236;19;20150;-77
2022/05/02 02:03:11;;;;;;;7.30;5.67;;;13.00;99.90;;;;;;7384364;19;20127;-76
2022/05/02 02:05:49;;;;;;;6.93;5.10;;;13.00;99.90;;;;;;7384363;19;20123;-75
2022/05/02 02:08:20;;;;;;;6.93;5.57;;;12.60;99.90;;;;;;7394362;19;20626;-77
2022/05/02 02:10:48;;;;;;;5.83;5.00;;;12.50;99.90;;;;;;7390262;19;20146;-77
2022/05/02 02:13:14;;;;;;;5.37;4.80;;;12.70;99.90;;;;;;7385067;19;20142;-76
2022/05/02 02:15:40;;;;;;;7.83;5.57;;;12.50;99.90;;;;;;7385714;19;20142;-77
2022/05/02 02:18:06;;;;;;;6.37;5.33;;;12.70;99.90;;;;;;7385838;19;20122;-78
2022/05/02 02:20:34;;;;;;;7.37;5.40;;;12.70;99.90;;;;;;7387975;19;20164;-76
2022/05/02 02:23:00;;;;;;;6.90;5.23;;;12.70;99.90;;;;;;7384903;19;20138;-77
2022/05/02 02:25:26;;;;;;;6.77;5.30;;;12.80;99.90;;;;;;7384562;19;20134;-77
2022/05/02 02:27:53;;;;;;;7.07;5.50;;;12.90;99.90;;;;;;7390985;19;20153;-78
2022/05/02 02:30:19;;;;;;;8.83;5.87;;;12.90;99.90;;;;;;7389117;19;20170;-78
2022/05/02 02:32:45;;;;;;;8.80;6.10;;;12.90;99.90;;;;;;7396390;19;20150;-77
2022/05/02 02:35:12;;;;;;;8.07;6.50;;;12.80;99.90;;;;;;7396095;19;20138;-76
2022/05/02 02:37:38;;;;;;;8.20;6.57;;;12.70;99.90;;;;;;7391403;19;20146;-78
2022/05/02 02:40:04;;;;;;;7.23;6.53;;;12.80;99.90;;;;;;7392222;19;20504;-78
2022/05/02 02:42:30;;;;;;;8.27;6.10;;;12.90;99.90;;;;;;7396744;19;20137;-75
2022/05/02 02:44:55;;;;;;;9.45;6.53;;;12.60;99.90;;;;;;7393622;19;20131;-78
2022/05/02 02:47:21;;;;;;;6.40;5.57;;;12.40;99.90;;;;;;7388504;19;20150;-78
2022/05/02 02:49:47;;;;;;;10.43;6.50;;;12.50;99.90;;;;;;7391974;19;20222;-76
2022/05/02 02:52:12;;;;;;;7.60;6.23;;;12.40;99.90;;;;;;7392039;19;20147;-75
2022/05/02 02:54:38;;;;;;;9.17;6.37;;;12.60;99.90;;;;;;7394991;19;20147;-78
2022/05/02 02:57:04;;;;;;;7.03;6.10;;;12.70;99.90;;;;;;7394320;19;20178;-76
2022/05/02 02:59:30;;;;;;;8.23;6.33;;;12.70;99.90;;;;;;7395544;19;20130;-76
2022/05/02 03:01:57;;;;;;;9.40;6.30;;;12.80;99.90;;;;;;7391312;19;20138;-77
2022/05/02 03:07:22;;;;;;;7.70;5.97;;;12.90;99.90;;;;;;7386363;19;20130;-78
2022/05/02 03:09:48;;;;;;;7.50;6.40;;;12.90;99.90;;;;;;7390653;19;20173;-76
2022/05/02 03:12:14;;;;;;;6.63;5.43;;;12.80;99.90;;;;;;7392319;19;20123;-76
2022/05/02 03:14:40;;;;;;;6.00;5.40;;;13.00;99.90;;;;;;7390259;19;20508;-78
2022/05/02 03:17:06;;;;;;;6.43;5.73;;;12.90;99.90;;;;;;7393180;19;20131;-76
2022/05/02 03:19:32;;;;;;;7.13;6.40;;;12.80;99.90;;;;;;7392207;19;20143;-76
2022/05/02 03:21:57;;;;;;;8.67;5.43;;;12.30;99.90;;;;;;7389683;19;20179;-76
2022/05/02 03:24:23;;;;;;;6.33;5.30;;;12.40;99.90;;;;;;7389963;19;20150;-77
2022/05/02 03:26:49;;;;;;;7.93;6.37;;;12.60;99.90;;;;;;7387808;19;20140;-76
2022/05/02 03:29:15;;;;;;;7.65;5.63;;;12.80;99.90;;;;;;7388366;19;20174;-77
2022/05/02 03:31:41;;;;;;;8.43;6.23;;;12.90;99.90;;;;;;7389809;19;20122;-76
2022/05/02 03:34:07;;;;;;;7.80;6.55;;;13.00;99.90;;;;;;7391621;19;20127;-77
2022/05/02 03:36:34;;;;;;;8.70;6.60;;;12.90;99.90;;;;;;7389209;19;20930;-77
2022/05/02 03:38:59;;;;;;;8.40;6.07;;;12.90;99.90;;;;;;7389342;19;20135;-76
2022/05/02 03:41:25;;;;;;;7.57;6.23;;;13.00;99.90;;;;;;7393219;19;20140;-75
2022/05/02 03:43:51;;;;;;;6.73;5.60;;;13.00;99.90;;;;;;7389367;19;20115;-78
2022/05/02 03:46:17;;;;;;;6.50;5.80;;;13.00;99.90;;;;;;7387471;19;20126;-78
2022/05/02 03:48:44;;;;;;;8.03;6.10;;;13.00;99.90;;;;;;7389369;19;20129;-76
2022/05/02 03:51:11;;;;;;;7.87;6.03;;;13.00;99.90;;;;;;7389681;19;20127;-78
2022/05/02 03:53:36;;;;;;;6.43;5.60;;;13.10;99.90;;;;;;7390424;19;20138;-76
2022/05/02 03:56:02;;;;;;;9.18;6.00;;;12.80;99.90;;;;;;7392016;19;20141;-75
2022/05/02 03:58:28;;;;;;;7.50;6.37;;;12.50;99.90;;;;;;7388924;19;20163;-75
2022/05/02 04:00:54;;;;;;;9.97;6.83;;;12.60;99.90;;;;;;7392778;19;20819;-78
2022/05/02 04:03:20;;;;;;;9.07;6.50;;;12.80;99.90;;;;;;7391468;19;20173;-75
2022/05/02 04:05:46;;;;;;;8.30;6.53;;;12.90;99.90;;;;;;7389300;19;20134;-78
2022/05/02 04:08:12;;;;;;;8.83;6.90;;;12.90;99.90;;;;;;7389698;19;20126;-75
2022/05/02 04:10:38;;;;;;;8.97;7.23;;;13.00;99.90;;;;;;7388094;19;20122;-78
2022/05/02 04:13:03;;;;;;;10.88;7.05;;;13.00;99.90;;;;;;7388332;19;20146;-76
2022/05/02 04:15:29;;;;;;;8.37;6.20;;;13.00;99.90;;;;;;7389223;19;20154;-77
2022/05/02 04:17:56;;;;;;;9.30;7.10;;;13.00;99.90;;;;;;7387993;19;20174;-78
2022/05/02 04:20:22;;;;;;;8.17;6.70;;;13.10;99.90;;;;;;7390171;19;20618;-76
2022/05/02 04:22:48;;;;;;;8.17;6.87;;;13.00;99.90;;;;;;7396001;19;20190;-75
2022/05/02 04:25:13;;;;;;;11.03;7.60;;;13.00;99.90;;;;;;7388295;19;20145;-77
2022/05/02 04:27:39;;;;;;;8.90;7.13;;;13.00;99.90;;;;;;7391548;19;20142;-76
2022/05/02 04:30:06;;;;;;;9.00;7.00;;;12.80;99.90;;;;;;7387831;19;20143;-77
2022/05/02 04:32:31;;;;;;;8.90;7.40;;;12.80;99.90;;;;;;7387515;19;20565;-77
2022/05/02 04:34:58;;;;;;;9.53;6.40;;;12.70;99.90;;;;;;7387473;19;20134;-76
2022/05/02 04:37:25;;;;;;;7.87;6.77;;;12.70;99.90;;;;;;7388685;19;20131;-77
2022/05/02 04:39:51;;;;;;;7.23;6.50;;;12.80;99.90;;;;;;7388250;19;20127;-76
2022/05/02 04:42:17;;;;;;;8.03;6.50;;;12.90;99.90;;;;;;7387361;19;20157;-76
2022/05/02 04:44:43;;;;;;;8.13;6.57;;;12.90;99.90;;;;;;7389260;19;20480;-76
2022/05/02 04:47:09;;;;;;;7.43;6.43;;;12.90;99.90;;;;;;7389196;19;20146;-78
2022/05/02 04:49:35;;;;;;;7.60;6.00;;;12.70;99.90;;;;;;7385091;19;20693;-77
2022/05/02 04:52:01;;;;;;;8.27;6.30;;;12.80;99.90;;;;;;7386435;19;20603;-78
2022/05/02 04:54:26;;;;;;;10.85;6.75;;;12.90;99.90;;;;;;7391172;19;20610;-78
2022/05/02 04:56:52;;;;;;;7.90;6.70;;;12.90;99.90;;;;;;7391518;19;20134;-76
2022/05/02 04:59:18;;;;;;;9.23;6.67;;;12.60;99.90;;;;;;7387785;19;20194;-77
2022/05/02 05:01:44;;;;;;;9.30;6.27;;;12.70;99.90;;;;;;7388014;19;20127;-77
2022/05/02 05:04:09;;;;;;;7.47;6.60;;;12.90;99.90;;;;;;7387634;19;20145;-78
2022/05/02 05:06:36;;;;;;;9.40;7.25;;;12.90;99.90;;;;;;7386316;19;20149;-76
2022/05/02 05:09:02;;;;;;;7.83;6.37;;;12.90;99.90;;;;;;7389350;19;20130;-77
2022/05/02 05:11:40;;;;;;;9.03;6.70;;;12.90;99.90;;;;;;7386803;19;20149;-77
2022/05/02 05:17:22;;;;;;;12.67;8.00;;;13.00;99.90;;;;;;7385969;19;20182;-78
2022/05/02 05:20:02;;;;;;;8.57;7.07;;;12.70;99.90;;;;;;7390278;19;20147;-78
2022/05/02 05:23:02;;;;;;;10.00;8.40;;;12.70;99.90;;;;;;7386852;19;20209;-77
2022/05/02 05:25:57;;;;;;;10.67;8.77;;;13.00;99.90;;;;;;7389847;19;20138;-77
2022/05/02 05:28:34;;;;;;;11.43;8.83;;;13.10;99.90;;;;;;7388749;19;20143;-75
2022/05/02 05:31:10;;;;;;;12.57;9.13;;;13.00;99.90;;;;;;7387622;19;20991;-76
2022/05/02 05:33:54;;;;;;;10.23;8.20;;;13.00;99.90;;;;;;7386181;19;20138;-77
2022/05/02 05:36:28;;;;;;;12.03;9.20;;;13.00;99.90;;;;;;7385362;19;20137;-76
2022/05/02 05:39:01;;;;;;;11.90;9.13;;;13.10;99.90;;;;;;7386822;19;20588;-77
2022/05/02 05:41:53;;;;;;;11.23;9.00;;;13.10;99.90;;;;;;7385267;19;20151;-77
2022/05/02 05:44:37;;;;;;;16.00;10.13;;;13.00;99.90;;;;;;7389467;19;20174;-76
2022/05/02 05:47:21;;;;;;;13.43;9.77;;;13.00;99.90;;;;;;7385960;19;20133;-76
2022/05/02 05:50:22;;;;;;;19.03;13.33;;;12.90;99.90;;;;;;7387605;19;20609;-77
2022/05/02 05:53:18;;;;;;;13.67;10.57;;;12.70;99.90;;;;;;7396649;19;20154;-76
2022/05/02 05:56:08;;;;;;;12.73;10.10;;;12.80;99.90;;;;;;7391057;19;20576;-75
2022/05/02 05:58:50;;;;;;;13.87;10.53;;;13.00;99.90;;;;;;7383273;19;20142;-71
2022/05/02 06:01:43;;;;;;;12.13;8.90;;;13.10;99.90;;;;;;7388112;19;20143;-75
2022/05/02 06:04:11;;;;;;;13.90;10.70;;;13.00;99.90;;;;;;7394437;19;20127;-75
2022/05/02 06:06:39;;;;;;;13.03;9.87;;;13.10;99.90;;;;;;7389980;19;20594;-72
2022/05/02 06:09:06;;;;;;;11.80;9.57;;;13.30;99.90;;;;;;7394621;19;20844;-75
2022/05/02 06:11:33;;;;;;;13.60;9.67;;;13.30;99.90;;;;;;7392585;19;20179;-77
2022/05/02 06:14:01;;;;;;;11.57;10.17;;;13.10;99.90;;;;;;7395041;19;20211;-75
2022/05/02 06:19:19;;;;;;;14.33;10.07;;;13.40;99.90;;;;;;7396964;19;20172;-72
2022/05/02 06:21:46;;;;;;;12.13;9.53;;;13.50;99.90;;;;;;7392430;19;20162;-76
2022/05/02 06:24:14;;;;;;;13.53;9.77;;;13.50;99.90;;;;;;7395214;19;20181;-74
2022/05/02 06:26:42;;;;;;;23.60;10.33;;;13.60;99.90;;;;;;7392319;19;20492;-75
2022/05/02 06:29:09;;;;;;;13.63;10.50;;;13.90;99.90;;;;;;7394914;19;20150;-74
2022/05/02 06:31:37;;;;;;;13.43;9.90;;;14.40;99.90;;;;;;7394572;19;20171;-73
2022/05/02 06:34:04;;;;;;;10.98;9.43;;;15.30;99.90;;;;;;7396977;19;20530;-77
2022/05/02 06:37:09;;;;;;;11.40;9.10;;;16.00;99.90;;;;;;7399565;19;20142;-74
2022/05/02 06:39:50;;;;;;;14.48;9.43;;;16.50;99.90;;;;;;7396487;19;20146;-74
2022/05/02 06:42:39;;;;;;;9.18;8.00;;;17.00;99.90;;;;;;7395373;19;20131;-74
2022/05/02 06:45:10;;;;;;;12.57;9.60;;;17.20;99.90;;;;;;7391961;19;20709;-71
2022/05/02 06:47:39;;;;;;;14.45;10.38;;;17.30;99.90;;;;;;7388941;19;20131;-73
2022/05/02 06:50:07;;;;;;;12.60;9.35;;;17.00;99.90;;;;;;7390870;19;20139;-73
2022/05/02 06:52:44;;;;;;;11.05;9.48;;;16.80;99.90;;;;;;7391794;19;20170;-79
2022/05/02 06:55:40;;;;;;;14.45;9.88;;;16.80;99.90;;;;;;7392300;19;20493;-72
2022/05/02 06:58:28;;;;;;;12.48;9.70;;;16.90;99.90;;;;;;7401332;19;20143;-76
2022/05/02 07:01:44;;;;;;;11.82;9.40;;;17.00;99.90;;;;;;7392953;19;20157;-70
2022/05/02 07:04:53;;;;;;;13.80;9.70;;;17.20;99.90;;;;;;7393605;19;20579;-71
2022/05/02 07:07:46;;;;;;;14.57;10.52;;;17.40;99.90;;;;;;7393388;19;20210;-78
2022/05/02 07:10:24;;;;;;;13.68;9.05;;;17.50;99.90;;;;;;7395224;19;20138;-71
2022/05/02 07:13:16;;;;;;;16.67;9.43;;;17.60;99.90;;;;;;7391125;19;20134;-74
2022/05/02 07:15:50;;;;;;;10.68;8.35;;;17.70;99.90;;;;;;7395473;19;20749;-73
2022/05/02 07:18:30;;;;;;;12.05;9.38;;;17.90;99.90;;;;;;7392248;19;20157;-73
2022/05/02 07:21:26;;;;;;;11.30;9.27;;;18.10;99.90;;;;;;7397588;19;20154;-73
2022/05/02 07:24:21;;;;;;;14.88;10.82;;;18.30;99.90;;;;;;7396186;19;20625;-76
2022/05/02 07:27:00;;;;;;;13.75;10.18;;;18.30;99.90;;;;;;7390358;19;20994;-75
2022/05/02 07:29:29;;;;;;;10.82;9.15;;;18.40;99.90;;;;;;7391105;19;20181;-75
2022/05/02 07:31:56;;;;;;;11.38;9.73;;;18.40;99.90;;;;;;7393601;19;20154;-76
2022/05/02 07:34:24;;;;;;;12.18;9.15;;;18.40;99.90;;;;;;7394943;19;20150;-78
2022/05/02 07:36:51;;;;;;;13.10;9.40;;;18.50;99.90;;;;;;7398797;19;20146;-77
2022/05/02 07:39:21;;;;;;;12.77;10.02;;;18.60;99.90;;;;;;7394806;19;20538;-75
2022/05/02 07:41:50;;;;;;;11.57;9.95;;;18.40;99.90;;;;;;7393611;19;20226;-78
2022/05/02 07:44:18;;;;;;;13.85;10.38;;;18.40;99.90;;;;;;7397413;19;20154;-74
2022/05/02 07:46:50;;;;;;;11.90;10.13;;;18.30;99.90;;;;;;7395911;19;20155;-78
2022/05/02 07:49:22;;;;;;;11.25;9.10;;;18.30;99.90;;;;;;7392986;19;20149;-77
2022/05/02 07:51:52;;;;;;;13.77;9.43;;;18.40;99.90;;;;;;7395078;19;20171;-78
2022/05/02 07:54:25;;;;;;;11.40;9.57;;;18.40;99.90;;;;;;7392143;19;20609;-74
2022/05/02 07:56:53;;;;;;;10.93;8.70;;;18.40;99.90;;;;;;7389194;19;20482;-75
2022/05/02 07:59:23;;;;;;;14.15;8.63;;;18.90;99.90;;;;;;7391961;19;20146;-74
2022/05/02 08:01:49;;;;;;;10.95;9.30;;;19.40;99.90;;;;;;7388556;19;20177;-75
2022/05/02 08:04:15;;;;;;;12.95;10.15;;;19.80;99.90;;;;;;7390059;19;20147;-77
2022/05/02 08:07:00;;;;;;;13.32;9.68;;;19.70;99.90;;;;;;7393497;19;20145;-72
2022/05/02 08:09:51;;;;;;;12.38;9.75;;;19.40;99.90;;;;;;7394796;19;20138;-74
2022/05/02 08:12:23;;;;;;;12.80;9.40;;;19.10;99.90;;;;;;7391229;19;20143;-77
2022/05/02 08:15:03;;;;;;;9.48;8.48;;;19.10;99.90;;;;;;7391337;19;20213;-76
2022/05/02 08:17:52;;;;;;;12.40;9.93;;;19.10;99.90;;;;;;7391798;19;20190;-76
2022/05/02 08:20:39;;;;;;;10.00;8.48;;;19.10;99.90;;;;;;7392871;19;20509;-73
2022/05/02 08:29:46;;;;;;;12.05;10.55;;;18.90;99.90;;;;;;7389224;19;20211;-78
2022/05/02 08:32:32;;;;;;;10.68;9.50;;;18.80;99.90;;;;;;7390971;19;20180;-74
2022/05/02 08:35:25;;;;;;;12.80;9.93;;;18.70;99.90;;;;;;7389134;19;20127;-76
2022/05/02 08:38:17;;;;;;;11.98;10.43;;;18.60;99.90;;;;;;7388668;19;20190;-75
2022/05/02 08:41:08;;;;;;;14.02;10.90;;;18.40;99.90;;;;;;7388709;19;20590;-78
2022/05/02 08:44:16;;;;;;;9.95;8.73;;;18.40;99.90;;;;;;7389438;19;20142;-81
2022/05/02 08:47:13;;;;;;;14.85;9.77;;;18.60;99.90;;;;;;7387162;19;20184;-76
2022/05/02 08:50:03;;;;;;;13.90;10.60;;;18.50;99.90;;;;;;7392713;19;20494;-78
2022/05/02 08:52:52;;;;;;;15.93;10.98;;;18.30;99.90;;;;;;7392719;19;20142;-79
2022/05/02 08:55:19;;;;;;;16.15;9.50;;;18.20;99.90;;;;;;7393867;19;20138;-77
2022/05/02 08:58:23;;;;;;;11.43;8.93;;;18.30;99.90;;;;;;7391472;19;20547;-80
2022/05/02 09:01:01;;;;;;;12.38;8.60;;;18.20;99.90;;;;;;7394104;19;20542;-76
2022/05/02 09:03:57;;;;;;;12.95;10.23;;;18.30;99.90;;;;;;7388991;19;20134;-81
2022/05/02 09:06:47;;;;;;;12.55;9.13;;;18.50;99.90;;;;;;7400105;19;20130;-75
2022/05/02 09:09:28;;;;;;;10.30;8.88;;;18.40;99.90;;;;;;7399685;19;20138;-82
2022/05/02 09:12:08;;;;;;;11.60;7.97;;;18.30;99.90;;;;;;7393185;19;20134;-82
2022/05/02 09:14:53;;;;;;;15.02;8.75;;;18.40;99.90;;;;;;7394268;19;20487;-79
2022/05/02 09:17:33;;;;;;;14.48;9.95;;;18.30;99.90;;;;;;7389980;19;20172;-77
2022/05/02 09:20:01;;;;;;;12.68;9.52;;;18.20;99.90;;;;;;7392319;19;20142;-78
2022/05/02 09:23:02;;;;;;;10.77;8.25;;;18.00;99.90;;;;;;7388050;19;20167;-76
2022/05/02 09:25:44;;;;;;;12.68;8.73;;;18.00;99.90;;;;;;7385961;19;20141;-78
2022/05/02 09:28:28;;;;;;;9.80;8.80;;;18.20;99.90;;;;;;7388839;19;20122;-77
2022/05/02 09:31:09;;;;;;;10.88;8.25;;;18.30;99.90;;;;;;7387220;19;20142;-78
2022/05/02 09:33:55;;;;;;;9.52;7.20;;;18.80;99.90;;;;;;7389915;19;20157;-80
2022/05/02 09:36:25;;;;;;;7.13;6.43;;;18.80;99.90;;;;;;7389385;19;20202;-79
2022/05/02 09:39:14;;;;;;;7.20;5.82;;;18.40;99.90;;;;;;7391327;19;20123;-81
2022/05/02 09:42:03;;;;;;;8.65;6.43;;;18.30;99.90;;;;;;7386855;19;20517;-75
2022/05/02 09:50:31;;;;;;;6.65;5.72;;;18.10;99.90;;;;;;7391838;19;20127;-77
2022/05/02 09:53:25;;;;;;;7.20;5.88;;;18.10;99.90;;;;;;7392330;19;20127;-82
2022/05/02 09:58:54;;;;;;;6.32;5.55;;;18.40;99.90;;;;;;7389240;19;20500;-80
2022/05/02 10:01:21;;;;;;;6.28;5.68;;;18.50;99.90;;;;;;7388200;19;20131;-80
2022/05/02 10:04:18;;;;;;;6.95;5.78;;;18.60;99.90;;;;;;7385843;19;20422;-76
2022/05/02 10:06:51;;;;;;;7.70;5.38;;;18.70;99.90;;;;;;7384912;19;20155;-78
2022/05/02 10:09:45;;;;;;;6.97;5.53;;;18.80;99.90;;;;;;7386742;19;20479;-76
2022/05/02 10:12:51;;;;;;;6.72;5.85;;;18.80;99.90;;;;;;7387784;19;20135;-78
2022/05/02 10:15:36;;;;;;;6.30;5.70;;;18.90;99.90;;;;;;7390951;19;20139;-80
2022/05/02 10:18:14;;;;;;;7.28;5.07;;;18.80;99.90;;;;;;7393033;19;20458;-76
2022/05/02 10:21:17;;;;;;;6.30;5.35;;;18.80;99.90;;;;;;7391113;19;20145;-81
2022/05/02 10:24:08;;;;;;;7.75;4.90;;;18.80;99.90;;;;;;7389509;19;20586;-77
2022/05/02 10:26:55;;;;;;;5.68;4.63;;;18.80;99.90;;;;;;7388708;19;20163;-78
2022/05/02 10:29:37;;;;;;;5.40;4.60;;;18.90;99.90;;;;;;7391343;19;20685;-78
2022/05/02 10:32:35;;;;;;;6.78;5.25;;;18.90;99.90;;;;;;7387572;19;20131;-74
2022/05/02 10:35:02;;;;;;;6.43;4.72;;;19.00;99.90;;;;;;7387628;19;20291;-75
2022/05/02 10:37:33;;;;;;;5.00;4.50;;;19.00;99.90;;;;;;7391256;19;20198;-75
2022/05/02 10:40:08;;;;;;;5.50;4.68;;;19.00;99.90;;;;;;7388238;19;20210;-75
2022/05/02 10:42:35;;;;;;;5.22;4.50;;;18.70;99.90;;;;;;7391535;19;20138;-73
2022/05/02 10:45:09;;;;;;;5.57;4.70;;;18.60;99.90;;;;;;7387083;19;20135;-80
2022/05/02 10:47:51;;;;;;;6.30;4.88;;;18.60;99.90;;;;;;7390506;19;20146;-74
2022/05/02 10:50:17;;;;;;;6.38;4.93;;;18.70;99.90;;;;;;7392891;19;20139;-72
2022/05/02 10:52:46;;;;;;;7.10;5.25;;;18.80;99.90;;;;;;7393231;19;20488;-74
2022/05/02 10:55:26;;;;;;;4.35;3.78;;;18.80;99.90;;;;;;7395223;19;20141;-79
2022/05/02 10:58:00;;;;;;;9.75;5.97;;;18.90;99.90;;;;;;7395789;19;20143;-76
2022/05/02 11:00:28;;;;;;;3.72;3.15;;;19.10;99.90;;;;;;7394195;19;20140;-71
2022/05/02 11:02:59;;;;;;;5.05;3.17;;;19.40;99.90;;;;;;7394344;19;20162;-74
2022/05/02 11:05:28;;;;;;;3.67;3.25;;;19.30;99.90;;;;;;7392862;19;20229;-71
2022/05/02 11:08:30;;;;;;;4.25;3.08;;;19.40;99.90;;;;;;7391610;19;20139;-77
2022/05/02 11:11:05;;;;;;;3.97;3.58;;;19.40;99.90;;;;;;7395069;19;20146;-73
2022/05/02 11:13:53;;;;;;;3.45;3.10;;;19.60;99.50;;;;;;7396336;19;20150;-76
2022/05/02 11:16:26;;;;;;;3.35;3.05;;;19.70;99.10;;;;;;7390957;19;20781;-73
2022/05/02 11:22:13;;;;;;;5.22;3.97;;;19.50;99.30;;;;;;7394309;19;20546;-76
2022/05/02 11:24:47;;;;;;;6.43;5.13;;;19.60;99.20;;;;;;7395661;19;20143;-76
2022/05/02 11:27:32;;;;;;;5.20;3.42;;;19.70;99.30;;;;;;7391627;19;20130;-79
2022/05/02 11:30:08;;;;;;;4.10;3.47;;;19.90;98.90;;;;;;7392806;19;20154;-73
2022/05/02 11:32:56;;;;;;;5.43;3.70;;;19.90;98.90;;;;;;7391554;19;20162;-77
2022/05/02 11:35:24;;;;;;;4.70;3.72;;;19.90;99.40;;;;;;7390184;19;20142;-77
2022/05/02 11:38:07;;;;;;;5.70;4.35;;;19.70;99.90;;;;;;7392233;19;20214;-74
2022/05/02 11:40:41;;;;;;;5.90;3.58;;;19.60;99.90;;;;;;7392213;19;20487;-77
2022/05/02 11:43:09;;;;;;;5.28;4.30;;;19.70;99.90;;;;;;7397915;19;20143;-73
2022/05/02 11:45:47;;;;;;;7.10;4.43;;;19.70;99.90;;;;;;7391247;19;20138;-72
2022/05/02 11:48:31;;;;;;;4.88;4.03;;;19.60;99.90;;;;;;7390364;19;20162;-73
2022/05/02 11:51:03;;;;;;;6.13;3.30;;;19.40;99.00;;;;;;7390850;19;20135;-73
2022/05/02 11:53:34;;;;;;;3.80;3.40;;;19.30;99.90;;;;;;7393596;19;20238;-73
2022/05/02 11:56:04;;;;;;;3.45;3.13;;;19.30;99.40;;;;;;7393902;19;20490;-77
2022/05/02 11:58:42;;;;;;;4.32;2.97;;;19.10;99.50;;;;;;7386648;19;20155;-73
2022/05/02 12:01:10;;;;;;;3.75;3.40;;;19.30;99.50;;;;;;7382516;19;20167;-76
2022/05/02 12:03:51;;;;;;;4.75;3.72;;;19.60;99.60;;;;;;7388367;19;20151;-76
2022/05/02 12:06:23;;;;;;;4.50;3.50;;;19.70;99.60;;;;;;7392647;19;20141;-76
2022/05/02 12:08:51;;;;;;;4.70;3.63;;;19.80;99.10;;;;;;7392228;19;20170;-78
2022/05/02 12:11:17;;;;;;;7.85;3.90;;;19.80;98.90;;;;;;7390010;19;20138;-72
2022/05/02 12:13:45;;;;;;;3.20;2.63;;;19.70;99.10;;;;;;7387189;19;20210;-75
2022/05/02 12:16:16;;;;;;;5.40;3.00;;;19.70;99.10;;;;;;7389985;19;20510;-74
2022/05/02 12:18:51;;;;;;;4.95;3.15;;;19.60;98.90;;;;;;7390378;19;20203;-76
2022/05/02 12:21:36;;;;;;;4.43;2.80;;;19.70;98.60;;;;;;7387491;19;20150;-75
2022/05/02 12:24:04;;;;;;;3.40;2.75;;;19.70;98.00;;;;;;7393364;19;20170;-73
2022/05/02 12:26:33;;;;;;;2.75;2.20;;;19.70;97.60;;;;;;7390878;19;20206;-72
2022/05/02 12:29:04;;;;;;;2.83;2.33;;;19.70;97.70;;;;;;7394624;19;20146;-70
2022/05/02 12:31:37;;;;;;;4.40;3.03;;;19.90;97.80;;;;;;7390194;19;20151;-76
2022/05/02 12:34:09;;;;;;;2.42;2.22;;;20.10;97.40;;;;;;7389863;19;20147;-78
2022/05/02 12:36:51;;;;;;;3.13;2.75;;;20.30;96.80;;;;;;7389272;19;20186;-73
2022/05/02 12:39:18;;;;;;;5.95;2.92;;;20.40;97.10;;;;;;7393548;19;20158;-76
2022/05/02 12:41:50;;;;;;;4.60;2.58;;;20.30;97.90;;;;;;7390389;19;20707;-72
2022/05/02 12:44:18;;;;;;;3.35;2.90;;;20.20;97.40;;;;;;7388522;19;20559;-72
2022/05/02 12:46:47;;;;;;;5.40;3.75;;;19.90;98.10;;;;;;7388573;19;20135;-77
2022/05/02 12:49:41;;;;;;;3.88;3.50;;;19.90;98.60;;;;;;7394856;19;20394;-80
2022/05/02 12:52:08;;;;;;;6.88;5.60;;;19.80;98.40;;;;;;7390842;19;20488;-77
2022/05/02 12:54:33;;;;;;;9.00;4.75;;;19.80;98.60;;;;;;7388199;19;20138;-75
2022/05/02 13:02:40;;;;;;;4.60;2.90;;;20.00;97.50;;;;;;7387226;19;20155;-74
2022/05/02 13:05:22;;;;;;;8.40;3.17;;;20.00;96.90;;;;;;7385908;19;20141;-76
2022/05/02 13:07:55;;;;;;;5.30;2.72;;;20.00;97.70;;;;;;7382038;19;20150;-76
2022/05/02 13:10:26;;;;;;;7.18;3.25;;;20.20;97.60;;;;;;7388785;19;20135;-78
2022/05/02 13:12:58;;;;;;;2.58;2.25;;;20.40;96.90;;;;;;7388628;19;20601;-77
2022/05/02 13:15:33;;;;;;;3.20;2.50;;;20.40;96.80;;;;;;7383862;19;20931;-76
2022/05/02 13:18:02;;;;;;;3.38;2.20;;;20.30;96.10;;;;;;7382682;19;20213;-82
2022/05/02 13:20:30;;;;;;;3.33;2.42;;;20.20;96.60;;;;;;7380899;19;20189;-76
2022/05/02 13:22:59;;;;;;;3.85;2.85;;;20.00;96.80;;;;;;7383485;19;20138;-78
2022/05/02 13:26:03;;;;;;;3.05;2.40;;;20.00;97.00;;;;;;7393264;19;20134;-76
2022/05/02 13:29:17;;;;;;;4.72;2.42;;;19.70;97.50;;;;;;7389404;19;20570;-79
2022/05/02 13:31:56;;;;;;;2.38;2.17;;;19.80;97.20;;;;;;7386465;19;20205;-79
2022/05/02 13:34:31;;;;;;;3.70;2.78;;;19.80;96.70;;;;;;7392429;19;20143;-74
2022/05/02 13:37:15;;;;;;;2.95;2.40;;;20.10;96.60;;;;;;7391562;19;20482;-79
2022/05/02 13:40:02;;;;;;;2.13;1.90;;;20.20;96.60;;;;;;7390018;19;20545;-77
2022/05/02 13:42:53;;;;;;;3.97;2.33;;;20.20;96.20;;;;;;7391104;19;20152;-76
2022/05/02 13:45:30;;;;;;;3.00;2.47;;;20.10;96.40;;;;;;7390030;19;20242;-76
2022/05/02 13:48:33;;;;;;;2.72;2.40;;;20.00;96.50;;;;;;7384977;19;20761;-78
2022/05/02 13:51:38;;;;;;;40.42;12.57;;;19.80;97.50;;;;;;7390111;19;20581;-81
2022/05/02 13:54:17;;;;;;;4.28;2.75;;;19.60;99.60;;;;;;7393013;19;20139;-76
2022/05/02 13:57:15;;;;;;;5.28;2.70;;;19.50;98.70;;;;;;7390911;19;20149;-75